createdAt,value
2023-05-02T00:17:47.745Z,5.70
2023-05-02T00:36:26.971Z,4.70
2023-05-02T00:55:06.736Z,6.90
2023-05-02T01:13:45.027Z,4.20
2023-05-02T01:32:24.008Z,3.90
2023-05-02T01:51:04.082Z,4.60
2023-05-02T02:09:47.322Z,5.50
2023-05-02T02:28:22.626Z,4.90
2023-05-02T03:05:42.428Z,5.00
2023-05-02T03:24:22.344Z,3.80
2023-05-02T03:43:02.395Z,4.90
2023-05-02T04:01:41.382Z,5.20
2023-05-02T04:20:26.956Z,3.70
2023-05-02T04:39:00.262Z,4.60
2023-05-02T04:57:38.585Z,6.20
2023-05-02T05:34:58.920Z,8.90
2023-05-02T05:53:39.596Z,9.50
2023-05-02T06:31:02.042Z,6.10
2023-05-02T06:49:42.491Z,8.90
2023-05-02T07:08:22.304Z,4.70
2023-05-02T07:27:03.442Z,4.70
2023-05-02T07:45:44.435Z,5.70
2023-05-02T08:04:28.542Z,3.80
2023-05-02T08:23:05.859Z,5.50
2023-05-02T08:41:46.817Z,4.00
2023-05-02T09:00:26.796Z,3.90
2023-05-02T09:19:07.945Z,2.50
2023-05-02T09:37:48.303Z,3.30
2023-05-02T09:56:28.748Z,3.20
2023-05-02T10:33:49.318Z,4.00
2023-05-02T10:52:30.461Z,2.50
2023-05-02T11:11:09.214Z,2.80
2023-05-02T11:29:46.788Z,1.50
2023-05-02T11:48:25.285Z,2.60
2023-05-02T12:07:04.539Z,3.00
2023-05-02T12:44:23.137Z,1.70
2023-05-02T13:03:02.816Z,0.80
2023-05-02T13:40:18.475Z,1.50
2023-05-02T13:58:56.619Z,1.40
2023-05-02T14:36:12.668Z,1.60
2023-05-02T14:54:50.826Z,1.10
2023-05-02T15:32:06.994Z,1.40
2023-05-02T15:50:48.224Z,1.50
2023-05-02T16:09:22.559Z,2.50
2023-05-02T16:46:38.413Z,2.90
2023-05-02T17:05:14.912Z,2.90
2023-05-02T17:42:32.738Z,2.40
2023-05-02T18:01:11.079Z,2.00
2023-05-02T18:19:48.810Z,3.30
2023-05-02T18:38:27.705Z,4.00
2023-05-02T18:57:07.126Z,1.70
2023-05-02T19:34:24.972Z,1.10
2023-05-02T20:11:41.006Z,2.20
2023-05-02T20:48:59.096Z,2.50
2023-05-02T21:07:38.354Z,2.50
2023-05-02T21:26:17.599Z,1.90
2023-05-02T21:44:56.410Z,2.90
2023-05-02T22:03:36.089Z,2.50
2023-05-02T22:22:14.714Z,3.00
2023-05-02T22:40:53.845Z,2.10
2023-05-02T22:59:33.415Z,3.00
2023-05-02T23:18:11.838Z,3.30
2023-05-02T23:55:29.827Z,3.40
